sensor_id;sensor_type;location;lat;lon;timestamp;P1;durP1;ratioP1;P2;durP2;ratioP2
1977;SDS011;989;53.016;8.346;2023-11-19T00:00:33;12.73;;;9.57;;
1977;SDS011;989;53.016;8.346;2023-11-19T00:02:58;19.00;;;12.43;;
1977;SDS011;989;53.016;8.346;2023-11-19T00:05:23;20.80;;;13.70;;
1977;SDS011;989;53.016;8.346;2023-11-19T00:07:49;19.33;;;13.47;;
1977;SDS011;989;53.016;8.346;2023-11-19T00:10:15;17.27;;;11.40;;
1977;SDS011;989;53.016;8.346;2023-11-19T00:12:47;20.07;;;13.53;;
1977;SDS011;989;53.016;8.346;2023-11-19T00:15:12;22.97;;;11.60;;
1977;SDS011;989;53.016;8.346;2023-11-19T00:17:38;21.07;;;13.60;;
1977;SDS011;989;53.016;8.346;2023-11-19T00:20:05;17.90;;;12.30;;
1977;SDS011;989;53.016;8.346;2023-11-19T00:22:31;18.27;;;11.60;;
1977;SDS011;989;53.016;8.346;2023-11-19T00:24:56;19.33;;;10.53;;
1977;SDS011;989;53.016;8.346;2023-11-19T00:27:21;18.60;;;12.20;;
1977;SDS011;989;53.016;8.346;2023-11-19T00:29:47;17.10;;;11.30;;
1977;SDS011;989;53.016;8.346;2023-11-19T00:32:12;13.97;;;11.63;;
1977;SDS011;989;53.016;8.346;2023-11-19T00:34:37;18.10;;;10.73;;
1977;SDS011;989;53.016;8.346;2023-11-19T00:37:03;16.87;;;10.77;;
1977;SDS011;989;53.016;8.346;2023-11-19T00:39:29;15.70;;;11.10;;
1977;SDS011;989;53.016;8.346;2023-11-19T00:41:54;17.53;;;13.07;;
1977;SDS011;989;53.016;8.346;2023-11-19T00:44:19;16.77;;;11.87;;
1977;SDS011;989;53.016;8.346;2023-11-19T00:46:44;18.13;;;11.60;;
1977;SDS011;989;53.016;8.346;2023-11-19T00:49:09;22.30;;;11.13;;
1977;SDS011;989;53.016;8.346;2023-11-19T00:51:36;15.80;;;10.97;;
1977;SDS011;989;53.016;8.346;2023-11-19T00:54:01;18.00;;;12.03;;
1977;SDS011;989;53.016;8.346;2023-11-19T00:56:27;16.70;;;12.27;;
1977;SDS011;989;53.016;8.346;2023-11-19T00:58:53;19.10;;;12.43;;
1977;SDS011;989;53.016;8.346;2023-11-19T01:01:18;15.17;;;10.57;;
1977;SDS011;989;53.016;8.346;2023-11-19T01:03:43;21.13;;;12.17;;
1977;SDS011;989;53.016;8.346;2023-11-19T01:06:08;22.67;;;12.20;;
1977;SDS011;989;53.016;8.346;2023-11-19T01:08:34;20.00;;;13.57;;
1977;SDS011;989;53.016;8.346;2023-11-19T01:11:00;20.83;;;13.10;;
1977;SDS011;989;53.016;8.346;2023-11-19T01:13:26;19.47;;;11.07;;
1977;SDS011;989;53.016;8.346;2023-11-19T01:15:51;16.57;;;11.83;;
1977;SDS011;989;53.016;8.346;2023-11-19T01:18:16;16.13;;;10.70;;
1977;SDS011;989;53.016;8.346;2023-11-19T01:20:41;17.50;;;11.90;;
1977;SDS011;989;53.016;8.346;2023-11-19T01:23:06;14.37;;;10.07;;
1977;SDS011;989;53.016;8.346;2023-11-19T01:25:32;14.47;;;10.60;;
1977;SDS011;989;53.016;8.346;2023-11-19T01:27:59;17.50;;;10.73;;
1977;SDS011;989;53.016;8.346;2023-11-19T01:30:24;15.83;;;11.10;;
1977;SDS011;989;53.016;8.346;2023-11-19T01:32:49;16.53;;;10.17;;
1977;SDS011;989;53.016;8.346;2023-11-19T01:35:15;15.13;;;10.23;;
1977;SDS011;989;53.016;8.346;2023-11-19T01:37:40;13.87;;;10.80;;
1977;SDS011;989;53.016;8.346;2023-11-19T01:40:06;16.50;;;12.10;;
1977;SDS011;989;53.016;8.346;2023-11-19T01:42:36;16.23;;;11.23;;
1977;SDS011;989;53.016;8.346;2023-11-19T01:45:02;16.03;;;11.17;;
1977;SDS011;989;53.016;8.346;2023-11-19T01:47:28;17.33;;;11.37;;
1977;SDS011;989;53.016;8.346;2023-11-19T01:49:53;18.17;;;13.50;;
1977;SDS011;989;53.016;8.346;2023-11-19T01:52:19;18.00;;;12.43;;
1977;SDS011;989;53.016;8.346;2023-11-19T01:54:45;14.37;;;10.93;;
1977;SDS011;989;53.016;8.346;2023-11-19T01:57:10;16.57;;;11.23;;
1977;SDS011;989;53.016;8.346;2023-11-19T01:59:35;20.73;;;11.50;;
1977;SDS011;989;53.016;8.346;2023-11-19T02:02:01;18.27;;;12.70;;
1977;SDS011;989;53.016;8.346;2023-11-19T02:04:26;18.73;;;12.57;;
1977;SDS011;989;53.016;8.346;2023-11-19T02:06:52;21.57;;;12.40;;
1977;SDS011;989;53.016;8.346;2023-11-19T02:09:19;17.67;;;11.77;;
1977;SDS011;989;53.016;8.346;2023-11-19T02:11:44;23.33;;;12.23;;
1977;SDS011;989;53.016;8.346;2023-11-19T02:14:09;21.00;;;12.77;;
1977;SDS011;989;53.016;8.346;2023-11-19T02:16:36;17.93;;;11.93;;
1977;SDS011;989;53.016;8.346;2023-11-19T02:19:01;22.97;;;14.10;;
1977;SDS011;989;53.016;8.346;2023-11-19T02:21:26;19.53;;;11.70;;
1977;SDS011;989;53.016;8.346;2023-11-19T02:23:51;20.40;;;12.00;;
1977;SDS011;989;53.016;8.346;2023-11-19T02:26:28;20.97;;;12.60;;
1977;SDS011;989;53.016;8.346;2023-11-19T02:28:55;21.10;;;12.50;;
1977;SDS011;989;53.016;8.346;2023-11-19T02:31:21;21.90;;;12.73;;
1977;SDS011;989;53.016;8.346;2023-11-19T02:33:48;22.10;;;14.03;;
1977;SDS011;989;53.016;8.346;2023-11-19T02:36:14;24.20;;;13.73;;
1977;SDS011;989;53.016;8.346;2023-11-19T02:38:40;19.60;;;13.03;;
1977;SDS011;989;53.016;8.346;2023-11-19T02:41:06;24.17;;;14.37;;
1977;SDS011;989;53.016;8.346;2023-11-19T02:43:31;22.83;;;13.90;;
1977;SDS011;989;53.016;8.346;2023-11-19T02:45:58;23.50;;;12.33;;
1977;SDS011;989;53.016;8.346;2023-11-19T02:48:23;19.87;;;13.50;;
1977;SDS011;989;53.016;8.346;2023-11-19T02:50:48;17.87;;;12.50;;
1977;SDS011;989;53.016;8.346;2023-11-19T02:53:13;18.13;;;11.47;;
1977;SDS011;989;53.016;8.346;2023-11-19T02:55:38;23.60;;;13.77;;
1977;SDS011;989;53.016;8.346;2023-11-19T02:58:05;19.17;;;13.00;;
1977;SDS011;989;53.016;8.346;2023-11-19T03:00:44;20.70;;;12.50;;
1977;SDS011;989;53.016;8.346;2023-11-19T03:03:17;22.03;;;13.27;;
1977;SDS011;989;53.016;8.346;2023-11-19T03:05:46;21.30;;;11.30;;
1977;SDS011;989;53.016;8.346;2023-11-19T03:08:11;26.70;;;12.47;;
1977;SDS011;989;53.016;8.346;2023-11-19T03:10:37;34.43;;;15.00;;
1977;SDS011;989;53.016;8.346;2023-11-19T03:13:02;30.27;;;13.77;;
1977;SDS011;989;53.016;8.346;2023-11-19T03:15:28;21.70;;;12.43;;
1977;SDS011;989;53.016;8.346;2023-11-19T03:17:53;23.20;;;12.80;;
1977;SDS011;989;53.016;8.346;2023-11-19T03:20:19;25.50;;;13.40;;
1977;SDS011;989;53.016;8.346;2023-11-19T03:22:45;25.17;;;13.50;;
1977;SDS011;989;53.016;8.346;2023-11-19T03:25:11;20.37;;;11.17;;
1977;SDS011;989;53.016;8.346;2023-11-19T03:27:36;23.63;;;12.93;;
1977;SDS011;989;53.016;8.346;2023-11-19T03:30:02;32.13;;;12.53;;
1977;SDS011;989;53.016;8.346;2023-11-19T03:32:29;30.13;;;12.27;;
1977;SDS011;989;53.016;8.346;2023-11-19T03:34:54;25.10;;;12.95;;
1977;SDS011;989;53.016;8.346;2023-11-19T03:37:20;31.47;;;13.20;;
1977;SDS011;989;53.016;8.346;2023-11-19T03:39:45;26.77;;;13.50;;
1977;SDS011;989;53.016;8.346;2023-11-19T03:42:10;29.83;;;13.43;;
1977;SDS011;989;53.016;8.346;2023-11-19T03:44:38;37.50;;;12.87;;
1977;SDS011;989;53.016;8.346;2023-11-19T03:47:03;18.63;;;10.43;;
1977;SDS011;989;53.016;8.346;2023-11-19T03:49:28;24.70;;;13.10;;
1977;SDS011;989;53.016;8.346;2023-11-19T03:51:53;27.23;;;14.50;;
1977;SDS011;989;53.016;8.346;2023-11-19T03:54:19;29.80;;;13.13;;
1977;SDS011;989;53.016;8.346;2023-11-19T03:56:45;32.20;;;15.30;;
1977;SDS011;989;53.016;8.346;2023-11-19T03:59:10;31.30;;;14.10;;
1977;SDS011;989;53.016;8.346;2023-11-19T04:01:35;24.60;;;13.00;;
1977;SDS011;989;53.016;8.346;2023-11-19T04:04:02;26.43;;;12.73;;
1977;SDS011;989;53.016;8.346;2023-11-19T04:06:27;22.77;;;13.10;;
1977;SDS011;989;53.016;8.346;2023-11-19T04:08:52;25.97;;;14.40;;
1977;SDS011;989;53.016;8.346;2023-11-19T04:11:17;35.60;;;14.60;;
1977;SDS011;989;53.016;8.346;2023-11-19T04:13:43;28.17;;;13.83;;
1977;SDS011;989;53.016;8.346;2023-11-19T04:16:09;37.50;;;13.53;;
1977;SDS011;989;53.016;8.346;2023-11-19T04:18:34;32.83;;;14.57;;
1977;SDS011;989;53.016;8.346;2023-11-19T04:20:59;33.00;;;14.13;;
1977;SDS011;989;53.016;8.346;2023-11-19T04:23:24;33.93;;;13.77;;
1977;SDS011;989;53.016;8.346;2023-11-19T04:25:50;28.53;;;14.40;;
1977;SDS011;989;53.016;8.346;2023-11-19T04:28:15;27.77;;;14.17;;
1977;SDS011;989;53.016;8.346;2023-11-19T04:30:40;37.93;;;13.30;;
1977;SDS011;989;53.016;8.346;2023-11-19T04:33:05;41.10;;;12.90;;
1977;SDS011;989;53.016;8.346;2023-11-19T04:35:31;35.97;;;12.73;;
1977;SDS011;989;53.016;8.346;2023-11-19T04:37:56;28.53;;;12.40;;
1977;SDS011;989;53.016;8.346;2023-11-19T04:40:22;27.73;;;14.47;;
1977;SDS011;989;53.016;8.346;2023-11-19T04:42:47;30.40;;;12.77;;
1977;SDS011;989;53.016;8.346;2023-11-19T04:45:13;26.67;;;10.20;;
1977;SDS011;989;53.016;8.346;2023-11-19T04:47:38;27.57;;;12.40;;
1977;SDS011;989;53.016;8.346;2023-11-19T04:50:03;19.17;;;11.27;;
1977;SDS011;989;53.016;8.346;2023-11-19T04:52:29;29.40;;;11.77;;
1977;SDS011;989;53.016;8.346;2023-11-19T04:54:54;28.60;;;12.23;;
1977;SDS011;989;53.016;8.346;2023-11-19T04:57:19;39.00;;;11.70;;
1977;SDS011;989;53.016;8.346;2023-11-19T04:59:44;31.65;;;13.75;;
1977;SDS011;989;53.016;8.346;2023-11-19T05:02:10;32.50;;;11.83;;
1977;SDS011;989;53.016;8.346;2023-11-19T05:04:35;24.77;;;11.27;;
1977;SDS011;989;53.016;8.346;2023-11-19T05:07:01;29.30;;;11.70;;
1977;SDS011;989;53.016;8.346;2023-11-19T05:09:26;32.10;;;11.50;;
1977;SDS011;989;53.016;8.346;2023-11-19T05:11:51;23.47;;;11.23;;
1977;SDS011;989;53.016;8.346;2023-11-19T05:14:16;21.50;;;9.47;;
1977;SDS011;989;53.016;8.346;2023-11-19T05:16:43;26.50;;;8.83;;
1977;SDS011;989;53.016;8.346;2023-11-19T05:19:08;22.00;;;7.40;;
1977;SDS011;989;53.016;8.346;2023-11-19T05:21:34;25.97;;;9.60;;
1977;SDS011;989;53.016;8.346;2023-11-19T05:23:59;25.37;;;8.93;;
1977;SDS011;989;53.016;8.346;2023-11-19T05:26:24;24.33;;;8.50;;
1977;SDS011;989;53.016;8.346;2023-11-19T05:28:50;27.67;;;10.20;;
1977;SDS011;989;53.016;8.346;2023-11-19T05:31:16;24.33;;;7.30;;
1977;SDS011;989;53.016;8.346;2023-11-19T05:33:41;20.00;;;7.13;;
1977;SDS011;989;53.016;8.346;2023-11-19T05:36:06;23.03;;;8.00;;
1977;SDS011;989;53.016;8.346;2023-11-19T05:38:33;39.13;;;8.73;;
1977;SDS011;989;53.016;8.346;2023-11-19T05:40:58;36.80;;;8.53;;
1977;SDS011;989;53.016;8.346;2023-11-19T05:43:23;22.23;;;7.20;;
1977;SDS011;989;53.016;8.346;2023-11-19T05:45:48;35.33;;;8.25;;
1977;SDS011;989;53.016;8.346;2023-11-19T05:48:13;38.20;;;6.73;;
1977;SDS011;989;53.016;8.346;2023-11-19T05:50:39;26.93;;;6.10;;
1977;SDS011;989;53.016;8.346;2023-11-19T05:53:04;28.93;;;7.30;;
1977;SDS011;989;53.016;8.346;2023-11-19T05:55:35;24.87;;;6.17;;
1977;SDS011;989;53.016;8.346;2023-11-19T05:58:01;29.80;;;7.17;;
1977;SDS011;989;53.016;8.346;2023-11-19T06:00:26;32.07;;;7.53;;
1977;SDS011;989;53.016;8.346;2023-11-19T06:02:51;22.77;;;5.20;;
1977;SDS011;989;53.016;8.346;2023-11-19T06:05:16;23.73;;;6.67;;
1977;SDS011;989;53.016;8.346;2023-11-19T06:07:41;31.60;;;5.73;;
1977;SDS011;989;53.016;8.346;2023-11-19T06:10:07;26.47;;;5.20;;
1977;SDS011;989;53.016;8.346;2023-11-19T06:12:34;23.37;;;6.00;;
1977;SDS011;989;53.016;8.346;2023-11-19T06:15:02;23.03;;;4.33;;
1977;SDS011;989;53.016;8.346;2023-11-19T06:17:28;23.93;;;4.70;;
1977;SDS011;989;53.016;8.346;2023-11-19T06:19:53;42.47;;;6.73;;
1977;SDS011;989;53.016;8.346;2023-11-19T06:22:18;21.00;;;4.93;;
1977;SDS011;989;53.016;8.346;2023-11-19T06:24:43;21.07;;;4.90;;
1977;SDS011;989;53.016;8.346;2023-11-19T06:27:08;27.40;;;5.90;;
1977;SDS011;989;53.016;8.346;2023-11-19T06:29:34;24.13;;;4.73;;
1977;SDS011;989;53.016;8.346;2023-11-19T06:31:59;35.40;;;5.77;;
1977;SDS011;989;53.016;8.346;2023-11-19T06:34:25;28.90;;;4.73;;
1977;SDS011;989;53.016;8.346;2023-11-19T06:36:50;31.43;;;5.63;;
1977;SDS011;989;53.016;8.346;2023-11-19T06:39:15;27.20;;;4.13;;
1977;SDS011;989;53.016;8.346;2023-11-19T06:41:46;19.10;;;4.10;;
1977;SDS011;989;53.016;8.346;2023-11-19T06:44:11;27.10;;;4.20;;
1977;SDS011;989;53.016;8.346;2023-11-19T06:46:37;25.93;;;4.80;;
1977;SDS011;989;53.016;8.346;2023-11-19T06:49:02;26.50;;;5.10;;
1977;SDS011;989;53.016;8.346;2023-11-19T06:51:27;27.97;;;5.17;;
1977;SDS011;989;53.016;8.346;2023-11-19T06:53:52;20.23;;;5.07;;
1977;SDS011;989;53.016;8.346;2023-11-19T06:56:21;28.90;;;4.57;;
1977;SDS011;989;53.016;8.346;2023-11-19T06:58:46;22.70;;;5.30;;
1977;SDS011;989;53.016;8.346;2023-11-19T07:01:13;23.03;;;5.33;;
1977;SDS011;989;53.016;8.346;2023-11-19T07:03:38;18.00;;;4.77;;
1977;SDS011;989;53.016;8.346;2023-11-19T07:06:03;20.63;;;3.87;;
1977;SDS011;989;53.016;8.346;2023-11-19T07:08:30;15.13;;;3.80;;
1977;SDS011;989;53.016;8.346;2023-11-19T07:10:55;22.77;;;4.93;;
1977;SDS011;989;53.016;8.346;2023-11-19T07:13:20;9.73;;;2.60;;
1977;SDS011;989;53.016;8.346;2023-11-19T07:15:45;16.77;;;3.90;;
1977;SDS011;989;53.016;8.346;2023-11-19T07:18:11;21.87;;;5.27;;
1977;SDS011;989;53.016;8.346;2023-11-19T07:20:36;32.47;;;5.23;;
1977;SDS011;989;53.016;8.346;2023-11-19T07:23:02;24.87;;;4.43;;
1977;SDS011;989;53.016;8.346;2023-11-19T07:25:28;17.27;;;3.10;;
1977;SDS011;989;53.016;8.346;2023-11-19T07:27:53;27.30;;;6.00;;
1977;SDS011;989;53.016;8.346;2023-11-19T07:30:18;30.07;;;4.57;;
1977;SDS011;989;53.016;8.346;2023-11-19T07:32:43;13.80;;;3.10;;
1977;SDS011;989;53.016;8.346;2023-11-19T07:35:08;21.67;;;4.70;;
1977;SDS011;989;53.016;8.346;2023-11-19T07:37:34;27.10;;;4.07;;
1977;SDS011;989;53.016;8.346;2023-11-19T07:39:59;35.97;;;4.50;;
1977;SDS011;989;53.016;8.346;2023-11-19T07:42:24;23.47;;;4.20;;
1977;SDS011;989;53.016;8.346;2023-11-19T07:44:50;22.43;;;3.47;;
1977;SDS011;989;53.016;8.346;2023-11-19T07:47:15;28.83;;;4.87;;
1977;SDS011;989;53.016;8.346;2023-11-19T07:49:40;39.90;;;5.90;;
1977;SDS011;989;53.016;8.346;2023-11-19T07:52:05;36.67;;;6.63;;
1977;SDS011;989;53.016;8.346;2023-11-19T07:54:30;27.43;;;4.17;;
1977;SDS011;989;53.016;8.346;2023-11-19T07:56:55;15.93;;;3.63;;
1977;SDS011;989;53.016;8.346;2023-11-19T07:59:21;37.90;;;7.70;;
1977;SDS011;989;53.016;8.346;2023-11-19T08:01:46;35.03;;;5.13;;
1977;SDS011;989;53.016;8.346;2023-11-19T08:04:11;24.30;;;4.70;;
1977;SDS011;989;53.016;8.346;2023-11-19T08:06:37;32.23;;;5.27;;
1977;SDS011;989;53.016;8.346;2023-11-19T08:09:02;27.23;;;4.40;;
1977;SDS011;989;53.016;8.346;2023-11-19T08:11:27;26.93;;;5.00;;
1977;SDS011;989;53.016;8.346;2023-11-19T08:13:52;23.27;;;5.57;;
1977;SDS011;989;53.016;8.346;2023-11-19T08:16:17;16.67;;;3.97;;
1977;SDS011;989;53.016;8.346;2023-11-19T08:18:43;25.93;;;4.13;;
1977;SDS011;989;53.016;8.346;2023-11-19T08:21:08;30.27;;;4.97;;
1977;SDS011;989;53.016;8.346;2023-11-19T08:23:33;25.57;;;4.80;;
1977;SDS011;989;53.016;8.346;2023-11-19T08:25:58;28.13;;;4.78;;
1977;SDS011;989;53.016;8.346;2023-11-19T08:28:24;30.87;;;4.90;;
1977;SDS011;989;53.016;8.346;2023-11-19T08:30:49;40.53;;;7.33;;
1977;SDS011;989;53.016;8.346;2023-11-19T08:33:14;34.43;;;5.00;;
1977;SDS011;989;53.016;8.346;2023-11-19T08:35:40;32.43;;;6.37;;
1977;SDS011;989;53.016;8.346;2023-11-19T08:38:05;29.13;;;5.10;;
1977;SDS011;989;53.016;8.346;2023-11-19T08:40:30;25.20;;;4.53;;
1977;SDS011;989;53.016;8.346;2023-11-19T08:42:55;60.17;;;6.40;;
1977;SDS011;989;53.016;8.346;2023-11-19T08:45:21;23.33;;;5.67;;
1977;SDS011;989;53.016;8.346;2023-11-19T08:47:46;33.13;;;5.50;;
1977;SDS011;989;53.016;8.346;2023-11-19T08:50:11;32.27;;;5.77;;
1977;SDS011;989;53.016;8.346;2023-11-19T08:52:36;51.57;;;5.63;;
1977;SDS011;989;53.016;8.346;2023-11-19T08:55:02;30.47;;;5.47;;
1977;SDS011;989;53.016;8.346;2023-11-19T08:57:28;37.67;;;9.27;;
1977;SDS011;989;53.016;8.346;2023-11-19T08:59:53;42.47;;;6.97;;
1977;SDS011;989;53.016;8.346;2023-11-19T09:02:18;26.50;;;5.47;;
1977;SDS011;989;53.016;8.346;2023-11-19T09:04:43;26.37;;;4.70;;
1977;SDS011;989;53.016;8.346;2023-11-19T09:07:08;32.50;;;6.00;;
1977;SDS011;989;53.016;8.346;2023-11-19T09:09:37;32.30;;;6.27;;
1977;SDS011;989;53.016;8.346;2023-11-19T09:12:03;17.53;;;4.60;;
1977;SDS011;989;53.016;8.346;2023-11-19T09:14:31;27.67;;;5.50;;
1977;SDS011;989;53.016;8.346;2023-11-19T09:16:56;24.93;;;4.70;;
1977;SDS011;989;53.016;8.346;2023-11-19T09:19:22;32.73;;;6.60;;
1977;SDS011;989;53.016;8.346;2023-11-19T09:21:47;26.67;;;4.43;;
1977;SDS011;989;53.016;8.346;2023-11-19T09:24:13;35.00;;;6.50;;
1977;SDS011;989;53.016;8.346;2023-11-19T09:26:38;47.20;;;8.17;;
1977;SDS011;989;53.016;8.346;2023-11-19T09:29:06;29.03;;;4.70;;
1977;SDS011;989;53.016;8.346;2023-11-19T09:31:32;33.77;;;6.17;;
1977;SDS011;989;53.016;8.346;2023-11-19T09:33:57;37.03;;;6.77;;
1977;SDS011;989;53.016;8.346;2023-11-19T09:36:24;38.93;;;5.30;;
1977;SDS011;989;53.016;8.346;2023-11-19T09:38:49;20.90;;;4.57;;
1977;SDS011;989;53.016;8.346;2023-11-19T09:41:14;31.57;;;5.73;;
1977;SDS011;989;53.016;8.346;2023-11-19T09:43:40;20.23;;;3.13;;
1977;SDS011;989;53.016;8.346;2023-11-19T09:46:06;32.07;;;4.93;;
1977;SDS011;989;53.016;8.346;2023-11-19T09:48:33;39.93;;;6.70;;
1977;SDS011;989;53.016;8.346;2023-11-19T09:50:58;30.03;;;5.73;;
1977;SDS011;989;53.016;8.346;2023-11-19T09:53:24;21.73;;;5.20;;
1977;SDS011;989;53.016;8.346;2023-11-19T09:55:49;37.67;;;4.87;;
1977;SDS011;989;53.016;8.346;2023-11-19T09:58:15;28.03;;;5.63;;
1977;SDS011;989;53.016;8.346;2023-11-19T10:00:40;35.80;;;5.63;;
1977;SDS011;989;53.016;8.346;2023-11-19T10:03:06;42.63;;;5.67;;
1977;SDS011;989;53.016;8.346;2023-11-19T10:05:32;25.93;;;4.90;;
1977;SDS011;989;53.016;8.346;2023-11-19T10:07:57;26.87;;;4.70;;
1977;SDS011;989;53.016;8.346;2023-11-19T10:10:23;33.30;;;5.43;;
1977;SDS011;989;53.016;8.346;2023-11-19T10:12:50;31.97;;;4.60;;
1977;SDS011;989;53.016;8.346;2023-11-19T10:15:24;28.83;;;4.90;;
1977;SDS011;989;53.016;8.346;2023-11-19T10:17:51;19.93;;;4.10;;
1977;SDS011;989;53.016;8.346;2023-11-19T10:20:16;18.50;;;3.90;;
1977;SDS011;989;53.016;8.346;2023-11-19T10:22:42;18.70;;;4.70;;
1977;SDS011;989;53.016;8.346;2023-11-19T10:25:26;11.47;;;3.23;;
1977;SDS011;989;53.016;8.346;2023-11-19T10:27:52;26.30;;;5.47;;
1977;SDS011;989;53.016;8.346;2023-11-19T10:30:21;23.50;;;3.53;;
1977;SDS011;989;53.016;8.346;2023-11-19T10:32:57;22.37;;;4.30;;
1977;SDS011;989;53.016;8.346;2023-11-19T10:35:27;27.47;;;4.57;;
1977;SDS011;989;53.016;8.346;2023-11-19T10:37:52;24.40;;;4.50;;
1977;SDS011;989;53.016;8.346;2023-11-19T10:40:17;36.03;;;4.80;;
1977;SDS011;989;53.016;8.346;2023-11-19T10:42:43;27.03;;;4.53;;
1977;SDS011;989;53.016;8.346;2023-11-19T10:45:21;19.07;;;3.97;;
1977;SDS011;989;53.016;8.346;2023-11-19T10:47:46;29.50;;;5.43;;
1977;SDS011;989;53.016;8.346;2023-11-19T10:50:12;25.73;;;4.33;;
1977;SDS011;989;53.016;8.346;2023-11-19T10:52:37;27.80;;;4.77;;
1977;SDS011;989;53.016;8.346;2023-11-19T10:55:04;27.10;;;5.63;;
1977;SDS011;989;53.016;8.346;2023-11-19T10:57:31;37.10;;;5.50;;
1977;SDS011;989;53.016;8.346;2023-11-19T11:00:01;23.07;;;4.13;;
1977;SDS011;989;53.016;8.346;2023-11-19T11:02:27;28.50;;;4.97;;
1977;SDS011;989;53.016;8.346;2023-11-19T11:04:53;27.63;;;5.77;;
1977;SDS011;989;53.016;8.346;2023-11-19T11:07:20;23.60;;;5.20;;
1977;SDS011;989;53.016;8.346;2023-11-19T11:09:46;39.13;;;5.50;;
1977;SDS011;989;53.016;8.346;2023-11-19T11:12:13;32.70;;;5.80;;
1977;SDS011;989;53.016;8.346;2023-11-19T11:14:39;32.83;;;5.50;;
1977;SDS011;989;53.016;8.346;2023-11-19T11:17:05;24.67;;;5.00;;
1977;SDS011;989;53.016;8.346;2023-11-19T11:19:32;26.67;;;4.30;;
1977;SDS011;989;53.016;8.346;2023-11-19T11:21:58;22.37;;;5.03;;
1977;SDS011;989;53.016;8.346;2023-11-19T11:24:34;27.60;;;4.57;;
1977;SDS011;989;53.016;8.346;2023-11-19T11:35:10;29.33;;;4.77;;
1977;SDS011;989;53.016;8.346;2023-11-19T11:37:39;25.60;;;5.10;;
1977;SDS011;989;53.016;8.346;2023-11-19T11:40:13;18.67;;;5.37;;
1977;SDS011;989;53.016;8.346;2023-11-19T11:42:38;19.27;;;4.07;;
1977;SDS011;989;53.016;8.346;2023-11-19T11:50:10;33.10;;;6.20;;
1977;SDS011;989;53.016;8.346;2023-11-19T11:57:50;46.43;;;5.80;;
1977;SDS011;989;53.016;8.346;2023-11-19T12:00:36;48.27;;;8.40;;
1977;SDS011;989;53.016;8.346;2023-11-19T12:03:02;29.93;;;5.50;;
1977;SDS011;989;53.016;8.346;2023-11-19T12:05:29;25.43;;;4.80;;
1977;SDS011;989;53.016;8.346;2023-11-19T12:07:55;27.73;;;5.90;;
1977;SDS011;989;53.016;8.346;2023-11-19T12:10:20;25.13;;;5.10;;
1977;SDS011;989;53.016;8.346;2023-11-19T12:12:47;18.33;;;3.87;;
1977;SDS011;989;53.016;8.346;2023-11-19T12:15:12;24.43;;;5.23;;
1977;SDS011;989;53.016;8.346;2023-11-19T12:17:43;22.43;;;4.23;;
1977;SDS011;989;53.016;8.346;2023-11-19T12:20:09;20.90;;;4.37;;
1977;SDS011;989;53.016;8.346;2023-11-19T12:22:39;23.13;;;3.70;;
1977;SDS011;989;53.016;8.346;2023-11-19T12:25:05;21.67;;;3.87;;
1977;SDS011;989;53.016;8.346;2023-11-19T12:27:31;13.90;;;2.80;;
1977;SDS011;989;53.016;8.346;2023-11-19T12:29:57;12.13;;;3.00;;
1977;SDS011;989;53.016;8.346;2023-11-19T12:32:23;17.10;;;2.53;;
1977;SDS011;989;53.016;8.346;2023-11-19T12:34:48;13.53;;;2.67;;
1977;SDS011;989;53.016;8.346;2023-11-19T12:37:13;18.17;;;2.50;;
1977;SDS011;989;53.016;8.346;2023-11-19T12:39:38;5.40;;;1.70;;
1977;SDS011;989;53.016;8.346;2023-11-19T12:42:05;0.60;;;0.40;;
1977;SDS011;989;53.016;8.346;2023-11-19T12:44:30;0.60;;;0.40;;
1977;SDS011;989;53.016;8.346;2023-11-19T12:47:02;0.63;;;0.40;;
1977;SDS011;989;53.016;8.346;2023-11-19T12:49:28;0.60;;;0.40;;
1977;SDS011;989;53.016;8.346;2023-11-19T12:51:53;0.70;;;0.40;;
1977;SDS011;989;53.016;8.346;2023-11-19T12:54:18;0.67;;;0.50;;
1977;SDS011;989;53.016;8.346;2023-11-19T12:56:52;0.60;;;0.40;;
1977;SDS011;989;53.016;8.346;2023-11-19T12:59:18;0.60;;;0.40;;
1977;SDS011;989;53.016;8.346;2023-11-19T13:01:56;0.60;;;0.40;;
1977;SDS011;989;53.016;8.346;2023-11-19T13:04:22;0.60;;;0.40;;
1977;SDS011;989;53.016;8.346;2023-11-19T13:06:49;0.60;;;0.40;;
1977;SDS011;989;53.016;8.346;2023-11-19T13:09:23;0.60;;;0.40;;
1977;SDS011;989;53.016;8.346;2023-11-19T13:11:49;0.60;;;0.40;;
1977;SDS011;989;53.016;8.346;2023-11-19T13:14:15;0.60;;;0.40;;
1977;SDS011;989;53.016;8.346;2023-11-19T13:16:40;0.60;;;0.40;;
1977;SDS011;989;53.016;8.346;2023-11-19T13:19:05;0.60;;;0.40;;
1977;SDS011;989;53.016;8.346;2023-11-19T13:21:31;0.53;;;0.40;;
1977;SDS011;989;53.016;8.346;2023-11-19T13:23:56;0.57;;;0.40;;
1977;SDS011;989;53.016;8.346;2023-11-19T13:26:21;0.53;;;0.40;;
1977;SDS011;989;53.016;8.346;2023-11-19T13:28:47;0.50;;;0.40;;
1977;SDS011;989;53.016;8.346;2023-11-19T13:31:12;0.60;;;0.40;;
1977;SDS011;989;53.016;8.346;2023-11-19T13:33:37;0.50;;;0.40;;
1977;SDS011;989;53.016;8.346;2023-11-19T13:36:03;0.50;;;0.40;;
1977;SDS011;989;53.016;8.346;2023-11-19T13:38:34;0.50;;;0.40;;
1977;SDS011;989;53.016;8.346;2023-11-19T13:41:00;0.50;;;0.40;;
1977;SDS011;989;53.016;8.346;2023-11-19T13:43:25;0.50;;;0.40;;
1977;SDS011;989;53.016;8.346;2023-11-19T13:45:53;0.50;;;0.40;;
1977;SDS011;989;53.016;8.346;2023-11-19T13:48:18;0.60;;;0.40;;
1977;SDS011;989;53.016;8.346;2023-11-19T13:50:43;0.60;;;0.40;;
1977;SDS011;989;53.016;8.346;2023-11-19T13:53:08;0.60;;;0.40;;
1977;SDS011;989;53.016;8.346;2023-11-19T13:55:33;0.60;;;0.40;;
1977;SDS011;989;53.016;8.346;2023-11-19T13:57:59;0.60;;;0.40;;
1977;SDS011;989;53.016;8.346;2023-11-19T14:00:24;0.60;;;0.40;;
1977;SDS011;989;53.016;8.346;2023-11-19T14:02:50;0.60;;;0.50;;
1977;SDS011;989;53.016;8.346;2023-11-19T14:05:15;0.67;;;0.40;;
1977;SDS011;989;53.016;8.346;2023-11-19T14:07:42;0.80;;;0.40;;
1977;SDS011;989;53.016;8.346;2023-11-19T14:10:08;0.70;;;0.40;;
1977;SDS011;989;53.016;8.346;2023-11-19T14:12:37;0.70;;;0.50;;
1977;SDS011;989;53.016;8.346;2023-11-19T14:15:03;0.70;;;0.50;;
1977;SDS011;989;53.016;8.346;2023-11-19T14:17:30;0.70;;;0.40;;
1977;SDS011;989;53.016;8.346;2023-11-19T14:19:56;0.70;;;0.40;;
1977;SDS011;989;53.016;8.346;2023-11-19T14:22:21;0.70;;;0.40;;
1977;SDS011;989;53.016;8.346;2023-11-19T14:24:46;0.70;;;0.50;;
1977;SDS011;989;53.016;8.346;2023-11-19T14:27:11;1.43;;;1.33;;
1977;SDS011;989;53.016;8.346;2023-11-19T14:29:37;0.70;;;0.40;;
1977;SDS011;989;53.016;8.346;2023-11-19T14:32:02;0.70;;;0.40;;
1977;SDS011;989;53.016;8.346;2023-11-19T14:34:28;0.70;;;0.50;;
1977;SDS011;989;53.016;8.346;2023-11-19T14:36:54;0.70;;;0.40;;
1977;SDS011;989;53.016;8.346;2023-11-19T14:39:19;0.70;;;0.40;;
1977;SDS011;989;53.016;8.346;2023-11-19T14:41:45;0.70;;;0.40;;
1977;SDS011;989;53.016;8.346;2023-11-19T14:44:10;0.70;;;0.40;;
1977;SDS011;989;53.016;8.346;2023-11-19T14:46:35;0.60;;;0.40;;
1977;SDS011;989;53.016;8.346;2023-11-19T14:49:00;0.60;;;0.40;;
1977;SDS011;989;53.016;8.346;2023-11-19T14:51:26;2.50;;;2.30;;
1977;SDS011;989;53.016;8.346;2023-11-19T14:53:51;0.60;;;0.40;;
1977;SDS011;989;53.016;8.346;2023-11-19T14:56:16;0.60;;;0.40;;
1977;SDS011;989;53.016;8.346;2023-11-19T14:58:42;0.60;;;0.40;;
1977;SDS011;989;53.016;8.346;2023-11-19T15:01:12;0.60;;;0.40;;
1977;SDS011;989;53.016;8.346;2023-11-19T15:03:37;0.60;;;0.40;;
1977;SDS011;989;53.016;8.346;2023-11-19T15:06:02;0.60;;;0.40;;
1977;SDS011;989;53.016;8.346;2023-11-19T15:08:27;0.60;;;0.40;;
1977;SDS011;989;53.016;8.346;2023-11-19T15:10:53;0.60;;;0.40;;
1977;SDS011;989;53.016;8.346;2023-11-19T15:13:18;0.60;;;0.40;;
1977;SDS011;989;53.016;8.346;2023-11-19T15:15:43;0.60;;;0.40;;
1977;SDS011;989;53.016;8.346;2023-11-19T15:18:08;0.60;;;0.40;;
1977;SDS011;989;53.016;8.346;2023-11-19T15:20:35;0.60;;;0.40;;
1977;SDS011;989;53.016;8.346;2023-11-19T15:23:01;0.60;;;0.40;;